createdAt,value
2018-04-17T00:01:59.156Z,7.67
2018-04-17T00:04:25.268Z,7.67
2018-04-17T00:06:52.089Z,8.93
2018-04-17T00:09:18.529Z,9.07
2018-04-17T00:11:44.620Z,9.07
2018-04-17T00:14:10.687Z,9.10
2018-04-17T00:16:36.939Z,8.43
2018-04-17T00:19:03.358Z,8.90
2018-04-17T00:21:29.636Z,8.67
2018-04-17T00:23:56.673Z,8.70
2018-04-17T00:26:22.940Z,7.70
2018-04-17T00:28:49.227Z,8.13
2018-04-17T00:31:15.523Z,8.07
2018-04-17T00:33:41.809Z,10.10
2018-04-17T00:36:08.066Z,9.70
2018-04-17T00:38:35.108Z,9.10
2018-04-17T00:41:01.333Z,9.97
2018-04-17T00:43:27.571Z,8.33
2018-04-17T00:45:53.804Z,9.00
2018-04-17T00:48:20.108Z,8.50
2018-04-17T00:50:46.361Z,8.43
2018-04-17T00:53:24.962Z,9.53
2018-04-17T00:55:51.935Z,8.80
2018-04-17T00:58:18.151Z,9.50
2018-04-17T01:00:44.436Z,9.20
2018-04-17T01:03:10.644Z,9.40
2018-04-17T01:05:37.619Z,10.07
2018-04-17T01:08:03.844Z,9.50
2018-04-17T01:10:30.132Z,9.50
2018-04-17T01:12:56.383Z,10.13
2018-04-17T01:15:23.366Z,9.43
2018-04-17T01:17:50.412Z,10.33
2018-04-17T01:20:17.386Z,9.13
2018-04-17T01:22:44.352Z,10.33
2018-04-17T01:25:10.393Z,9.50
2018-04-17T01:27:37.328Z,9.40
2018-04-17T01:30:04.359Z,10.10
2018-04-17T01:32:30.580Z,9.90
2018-04-17T01:34:56.788Z,11.57
2018-04-17T01:37:23.045Z,10.93
2018-04-17T01:39:49.320Z,10.53
2018-04-17T01:42:15.552Z,9.93
2018-04-17T01:44:41.803Z,10.50
2018-04-17T01:47:08.079Z,10.50
2018-04-17T01:49:34.940Z,11.60
2018-04-17T01:52:01.185Z,9.80
2018-04-17T01:54:27.451Z,9.60
2018-04-17T01:56:53.695Z,9.60
2018-04-17T01:59:19.940Z,9.80
2018-04-17T02:01:46.184Z,9.40
2018-04-17T02:04:12.449Z,9.97
2018-04-17T02:06:38.711Z,9.77
2018-04-17T02:09:04.941Z,11.30
2018-04-17T02:11:31.165Z,10.50
2018-04-17T02:13:57.397Z,9.63
2018-04-17T02:16:23.616Z,11.00
2018-04-17T02:18:49.876Z,9.90
2018-04-17T02:21:16.903Z,10.23
2018-04-17T02:23:43.167Z,10.00
2018-04-17T02:26:09.416Z,10.80
2018-04-17T02:28:35.759Z,9.73
2018-04-17T02:31:02.031Z,10.77
2018-04-17T02:33:28.277Z,9.63
2018-04-17T02:35:55.277Z,10.13
2018-04-17T02:38:21.623Z,9.60
2018-04-17T02:40:47.841Z,10.17
2018-04-17T02:43:14.821Z,10.53
2018-04-17T02:45:41.077Z,10.30
2018-04-17T02:48:07.317Z,10.67
2018-04-17T02:50:33.568Z,10.43
2018-04-17T02:52:59.834Z,10.07
2018-04-17T02:55:27.560Z,9.53
2018-04-17T02:57:53.931Z,9.73
2018-04-17T03:00:20.001Z,10.43
2018-04-17T03:02:46.850Z,10.07
2018-04-17T03:05:13.636Z,11.10
2018-04-17T03:07:39.676Z,12.03
2018-04-17T03:10:05.920Z,10.20
2018-04-17T03:12:32.217Z,10.33
2018-04-17T03:14:58.448Z,11.10
2018-04-17T03:17:24.684Z,11.50
2018-04-17T03:19:51.635Z,11.03
2018-04-17T03:22:17.843Z,12.20
2018-04-17T03:24:44.114Z,11.97
2018-04-17T03:27:10.339Z,11.47
2018-04-17T03:29:36.555Z,11.47
2018-04-17T03:32:02.772Z,10.90
2018-04-17T03:34:29.794Z,10.57
2018-04-17T03:36:56.206Z,11.63
2018-04-17T03:39:22.481Z,11.37
2018-04-17T03:41:48.717Z,12.13
2018-04-17T03:44:14.957Z,11.90
2018-04-17T03:46:41.184Z,11.60
2018-04-17T03:49:07.436Z,11.57
2018-04-17T03:51:33.643Z,13.43
2018-04-17T03:53:59.864Z,11.80
2018-04-17T03:56:26.987Z,12.80
2018-04-17T03:58:53.289Z,12.03
2018-04-17T04:01:20.367Z,11.90
2018-04-17T04:03:47.077Z,12.20
2018-04-17T04:06:13.120Z,12.73
2018-04-17T04:08:39.416Z,11.90
2018-04-17T04:11:05.692Z,13.40
2018-04-17T04:13:32.693Z,13.67
2018-04-17T04:15:58.729Z,12.33
2018-04-17T04:18:37.355Z,13.30
2018-04-17T04:21:15.991Z,12.20
2018-04-17T04:23:54.606Z,13.32
2018-04-17T04:26:30.908Z,12.90
2018-04-17T04:28:57.176Z,13.50
2018-04-17T04:31:23.436Z,12.43
2018-04-17T04:33:49.652Z,13.27
2018-04-17T04:36:15.900Z,14.63
2018-04-17T04:38:42.634Z,12.60
2018-04-17T04:41:08.930Z,14.40
2018-04-17T04:43:35.164Z,13.37
2018-04-17T04:46:01.459Z,13.80
2018-04-17T04:48:27.679Z,14.43
2018-04-17T04:50:53.954Z,16.20
2018-04-17T04:53:20.192Z,13.93
2018-04-17T04:55:46.443Z,14.50
2018-04-17T04:58:13.436Z,13.67
2018-04-17T05:00:39.636Z,14.93
2018-04-17T05:03:05.911Z,14.30
2018-04-17T05:05:33.033Z,14.60
2018-04-17T05:07:59.270Z,14.30
2018-04-17T05:10:25.542Z,12.97
2018-04-17T05:12:52.567Z,13.95
2018-04-17T05:15:19.495Z,12.90
2018-04-17T05:17:45.532Z,13.17
2018-04-17T05:20:11.771Z,13.90
2018-04-17T05:22:38.139Z,13.07
2018-04-17T05:25:04.457Z,13.00
2018-04-17T05:27:30.803Z,13.13
2018-04-17T05:29:57.161Z,13.50
2018-04-17T05:32:23.406Z,12.70
2018-04-17T05:34:49.669Z,15.07
2018-04-17T05:37:16.056Z,13.17
2018-04-17T05:39:42.336Z,13.30
2018-04-17T05:42:08.652Z,14.67
2018-04-17T05:44:34.931Z,13.20
2018-04-17T05:47:01.239Z,12.53
2018-04-17T05:49:27.514Z,13.60
2018-04-17T05:51:53.836Z,12.23
2018-04-17T05:54:20.164Z,11.40
2018-04-17T05:56:46.768Z,16.47
2018-04-17T05:59:13.038Z,11.00
2018-04-17T06:01:40.059Z,11.37
2018-04-17T06:04:06.360Z,12.97
2018-04-17T06:06:32.643Z,10.83
2018-04-17T06:08:58.995Z,10.90
2018-04-17T06:11:25.308Z,10.57
2018-04-17T06:13:51.599Z,10.30
2018-04-17T06:16:18.596Z,10.30
2018-04-17T06:18:44.882Z,10.77
2018-04-17T06:21:11.157Z,12.07
2018-04-17T06:23:37.437Z,10.40
2018-04-17T06:26:03.726Z,12.07
2018-04-17T06:28:29.957Z,11.80
2018-04-17T06:30:56.243Z,11.50
2018-04-17T06:33:22.526Z,12.17
2018-04-17T06:35:49.594Z,11.93
2018-04-17T06:38:16.907Z,11.40
2018-04-17T06:40:43.127Z,12.27
2018-04-17T06:43:10.116Z,12.23
2018-04-17T06:45:36.489Z,11.60
2018-04-17T06:48:02.735Z,12.50
2018-04-17T06:50:28.971Z,11.33
2018-04-17T06:52:55.188Z,12.27
2018-04-17T06:55:21.417Z,10.93
2018-04-17T06:57:48.377Z,11.20
2018-04-17T07:00:14.608Z,12.20
2018-04-17T07:02:40.864Z,11.37
2018-04-17T07:05:07.236Z,12.50
2018-04-17T07:07:33.501Z,11.20
2018-04-17T07:09:59.768Z,11.10
2018-04-17T07:12:26.030Z,12.23
2018-04-17T07:14:53.067Z,11.90
2018-04-17T07:17:20.940Z,11.93
2018-04-17T07:19:47.193Z,10.00
2018-04-17T07:22:13.504Z,11.23
2018-04-17T07:24:39.772Z,12.00
2018-04-17T07:27:06.260Z,10.70
2018-04-17T07:29:32.591Z,10.60
2018-04-17T07:31:58.838Z,10.60
2018-04-17T07:34:25.079Z,10.40
2018-04-17T07:36:51.324Z,10.87
2018-04-17T07:39:17.567Z,11.40
2018-04-17T07:41:43.836Z,11.10
2018-04-17T07:44:10.085Z,10.77
2018-04-17T07:46:37.067Z,11.27
2018-04-17T07:49:07.053Z,11.60
2018-04-17T07:51:33.118Z,10.87
2018-04-17T07:53:59.174Z,10.90
2018-04-17T07:56:25.257Z,11.10
2018-04-17T07:58:51.521Z,11.00
2018-04-17T08:01:17.772Z,11.03
2018-04-17T08:03:43.991Z,11.53
2018-04-17T08:06:15.539Z,9.07
2018-04-17T08:08:41.612Z,9.50
2018-04-17T08:11:07.649Z,9.50
2018-04-17T08:13:33.704Z,9.20
2018-04-17T08:15:59.753Z,7.50
2018-04-17T08:18:26.532Z,8.80
2018-04-17T08:20:52.661Z,7.70
2018-04-17T08:23:21.571Z,10.30
2018-04-17T08:25:48.344Z,10.77
2018-04-17T08:28:14.378Z,9.63
2018-04-17T08:30:40.411Z,11.47
2018-04-17T08:33:06.453Z,11.83
2018-04-17T08:35:32.507Z,11.20
2018-04-17T08:37:58.561Z,14.63
2018-04-17T08:40:27.904Z,12.70
2018-04-17T08:42:53.940Z,12.80
2018-04-17T08:45:19.978Z,15.40
2018-04-17T08:47:46.019Z,13.77
2018-04-17T08:50:12.064Z,12.97
2018-04-17T08:52:38.087Z,13.23
2018-04-17T08:55:04.197Z,14.60
2018-04-17T08:57:30.233Z,13.33
2018-04-17T09:02:27.544Z,9.70
2018-04-17T09:04:53.613Z,9.10
2018-04-17T09:07:20.406Z,10.53
2018-04-17T09:09:46.440Z,11.90
2018-04-17T09:12:12.503Z,11.17
2018-04-17T09:14:38.571Z,10.80
2018-04-17T09:17:05.386Z,11.97
2018-04-17T09:19:33.356Z,11.67
2018-04-17T09:21:59.394Z,13.23
2018-04-17T09:24:25.443Z,10.50
2018-04-17T09:26:51.616Z,7.90
2018-04-17T09:29:17.656Z,9.50
2018-04-17T09:31:43.715Z,8.97
2018-04-17T09:34:10.500Z,10.57
2018-04-17T09:36:36.606Z,10.07
2018-04-17T09:39:04.443Z,9.37
2018-04-17T09:41:30.512Z,7.57
2018-04-17T09:43:56.575Z,8.40
2018-04-17T09:46:23.871Z,7.60
2018-04-17T09:48:49.968Z,7.03
2018-04-17T09:51:16.930Z,6.33
2018-04-17T09:53:48.419Z,6.67
2018-04-17T09:56:14.507Z,7.00
2018-04-17T09:58:40.584Z,7.30
2018-04-17T10:01:13.404Z,5.80
2018-04-17T10:03:39.510Z,6.93
2018-04-17T10:06:05.644Z,5.23
2018-04-17T10:08:33.202Z,4.70
2018-04-17T10:10:59.269Z,6.40
2018-04-17T10:13:26.065Z,7.43
2018-04-17T10:15:52.136Z,6.47
2018-04-17T10:18:18.196Z,8.13
2018-04-17T10:20:44.288Z,8.10
2018-04-17T10:23:10.355Z,7.40
2018-04-17T10:25:36.431Z,7.17
2018-04-17T10:28:05.252Z,7.30
2018-04-17T10:30:31.413Z,7.97
2018-04-17T10:32:57.482Z,9.00
2018-04-17T10:35:24.316Z,6.70
2018-04-17T10:37:50.384Z,6.90
2018-04-17T10:40:16.500Z,5.80
2018-04-17T10:42:42.561Z,7.27
2018-04-17T10:45:09.380Z,6.77
2018-04-17T10:47:35.504Z,7.30
2018-04-17T10:50:02.960Z,8.93
2018-04-17T10:52:29.028Z,8.40
2018-04-17T10:54:55.147Z,7.70
2018-04-17T10:57:21.225Z,7.20
2018-04-17T10:59:47.364Z,7.80
2018-04-17T11:02:13.477Z,7.53
2018-04-17T11:04:39.553Z,8.23
2018-04-17T11:07:06.352Z,8.10
2018-04-17T11:09:32.424Z,9.83
2018-04-17T11:12:00.049Z,7.17
2018-04-17T11:14:26.108Z,7.77
2018-04-17T11:16:52.168Z,7.23
2018-04-17T11:19:18.252Z,7.53
2018-04-17T11:21:44.328Z,7.33
2018-04-17T11:24:10.394Z,7.97
2018-04-17T11:26:36.511Z,6.77
2018-04-17T11:29:05.881Z,6.63
2018-04-17T11:31:32.668Z,7.40
2018-04-17T11:33:59.717Z,6.03
2018-04-17T11:36:25.806Z,5.77
2018-04-17T11:38:51.913Z,6.67
2018-04-17T11:41:17.997Z,6.10
2018-04-17T11:43:44.884Z,5.20
2018-04-17T11:46:27.127Z,6.07
2018-04-17T11:48:55.076Z,5.30
2018-04-17T11:51:21.908Z,5.80
2018-04-17T11:53:48.032Z,4.67
2018-04-17T11:56:14.148Z,4.50
2018-04-17T11:58:40.178Z,6.97
2018-04-17T12:01:08.472Z,4.97
2018-04-17T12:03:34.528Z,5.17
2018-04-17T12:06:00.594Z,4.80
2018-04-17T12:08:26.689Z,4.40
2018-04-17T12:10:52.783Z,4.90
2018-04-17T12:13:19.600Z,4.13
2018-04-17T12:15:45.654Z,4.47
2018-04-17T12:18:11.734Z,4.70
2018-04-17T12:20:37.809Z,4.30
2018-04-17T12:23:03.860Z,4.30
2018-04-17T12:25:29.918Z,3.77
2018-04-17T12:27:56.771Z,4.93
2018-04-17T12:30:23.572Z,4.37
2018-04-17T12:32:49.635Z,4.53
2018-04-17T12:35:15.741Z,4.43
2018-04-17T12:37:41.781Z,4.77
2018-04-17T12:40:07.812Z,5.10
2018-04-17T12:42:33.843Z,3.87
2018-04-17T12:44:59.890Z,4.93
2018-04-17T12:47:25.941Z,4.13
2018-04-17T12:49:51.976Z,3.67
2018-04-17T12:52:18.000Z,4.10
2018-04-17T12:54:44.037Z,4.67
2018-04-17T12:57:10.060Z,4.00
2018-04-17T12:59:36.098Z,4.77
2018-04-17T13:02:02.136Z,4.70
2018-04-17T13:04:28.190Z,4.50
2018-04-17T13:06:54.224Z,4.23
2018-04-17T13:09:21.081Z,4.80
2018-04-17T13:11:47.119Z,5.27
2018-04-17T13:14:13.165Z,4.57
2018-04-17T13:16:39.205Z,4.80
2018-04-17T13:19:05.272Z,5.37
2018-04-17T13:21:32.235Z,5.93
2018-04-17T13:23:59.298Z,4.03
2018-04-17T13:26:25.347Z,5.23
2018-04-17T13:28:51.608Z,4.10
2018-04-17T13:31:17.829Z,4.70
2018-04-17T13:33:44.064Z,4.57
2018-04-17T13:36:11.047Z,4.90
2018-04-17T13:38:37.608Z,3.90
2018-04-17T13:41:03.876Z,4.20
2018-04-17T13:43:30.123Z,4.63
2018-04-17T13:45:57.165Z,3.97
2018-04-17T13:48:23.455Z,4.60
2018-04-17T13:50:50.475Z,4.07
2018-04-17T13:53:16.746Z,4.77
2018-04-17T13:55:43.731Z,3.90
2018-04-17T13:58:10.008Z,4.20
2018-04-17T14:00:36.381Z,4.20
2018-04-17T14:03:03.383Z,4.17
2018-04-17T14:05:29.638Z,3.70
2018-04-17T14:07:55.916Z,3.70
2018-04-17T14:10:22.234Z,4.70
2018-04-17T14:12:48.510Z,4.80
2018-04-17T14:15:14.805Z,3.30
2018-04-17T14:17:41.072Z,4.20
2018-04-17T14:20:08.169Z,3.80
2018-04-17T14:22:35.155Z,4.00
2018-04-17T14:25:01.419Z,4.00
2018-04-17T14:27:27.681Z,4.10
2018-04-17T14:29:54.687Z,3.80
2018-04-17T14:32:20.972Z,4.40
2018-04-17T14:34:47.223Z,5.50
2018-04-17T14:37:14.224Z,4.20
2018-04-17T14:39:40.456Z,3.90
2018-04-17T14:42:06.712Z,4.43
2018-04-17T14:44:32.964Z,4.70
2018-04-17T14:46:59.183Z,4.00
2018-04-17T14:49:25.431Z,4.67
2018-04-17T14:51:51.658Z,5.37
2018-04-17T14:54:19.425Z,4.57
2018-04-17T14:56:46.414Z,5.03
2018-04-17T14:59:12.636Z,4.80
2018-04-17T15:01:38.923Z,4.73
2018-04-17T15:04:05.160Z,5.00
2018-04-17T15:06:36.216Z,4.70
2018-04-17T15:09:02.588Z,5.23
2018-04-17T15:11:28.821Z,5.00
2018-04-17T15:13:55.057Z,6.30
2018-04-17T15:16:21.280Z,5.63
2018-04-17T15:18:47.507Z,5.40
2018-04-17T15:21:13.737Z,4.70
2018-04-17T15:23:44.642Z,4.60
2018-04-17T15:26:10.866Z,3.97
2018-04-17T15:28:37.092Z,4.30
2018-04-17T15:31:04.032Z,4.97
2018-04-17T15:33:30.061Z,5.47
2018-04-17T15:35:56.338Z,5.70
2018-04-17T15:38:22.612Z,4.53
2018-04-17T15:40:51.105Z,5.03
2018-04-17T15:43:17.183Z,4.43
2018-04-17T15:45:43.248Z,12.83
2018-04-17T15:48:09.531Z,7.30
2018-04-17T15:50:36.549Z,5.10
2018-04-17T15:53:02.619Z,5.80
2018-04-17T15:55:28.916Z,5.33
2018-04-17T15:57:56.888Z,5.33
2018-04-17T16:00:24.672Z,5.10
2018-04-17T16:02:51.460Z,6.20
2018-04-17T16:05:17.517Z,6.20
2018-04-17T16:07:43.594Z,5.67
2018-04-17T16:10:10.406Z,6.10
2018-04-17T16:12:36.475Z,6.40
2018-04-17T16:15:05.429Z,6.53
2018-04-17T16:17:31.480Z,6.20
2018-04-17T16:19:57.576Z,4.80
2018-04-17T16:22:24.399Z,5.20
2018-04-17T16:24:50.455Z,6.43
2018-04-17T16:27:17.259Z,6.70
2018-04-17T16:29:43.324Z,6.50
2018-04-17T16:32:13.928Z,7.17
2018-04-17T16:34:40.843Z,6.30
2018-04-17T16:37:06.943Z,7.00
2018-04-17T16:39:33.111Z,7.37
2018-04-17T16:41:59.196Z,7.30
2018-04-17T16:44:26.124Z,7.27
2018-04-17T16:46:52.232Z,7.40
2018-04-17T16:49:18.295Z,7.27
2018-04-17T16:51:44.380Z,7.80
2018-04-17T16:54:10.440Z,7.70
2018-04-17T16:56:36.541Z,14.60
2018-04-17T16:59:03.334Z,7.20
2018-04-17T17:01:29.441Z,6.93
2018-04-17T17:03:56.244Z,7.50
2018-04-17T17:06:22.308Z,6.80
2018-04-17T17:08:48.382Z,8.07
2018-04-17T17:11:14.457Z,7.33
2018-04-17T17:13:40.544Z,7.20
2018-04-17T17:16:07.700Z,7.50
2018-04-17T17:18:34.518Z,7.73
2018-04-17T17:21:00.611Z,7.83
2018-04-17T17:23:26.670Z,8.00
2018-04-17T17:25:52.755Z,7.70
2018-04-17T17:28:19.616Z,8.53
2018-04-17T17:30:46.444Z,7.73
2018-04-17T17:33:12.560Z,7.77
2018-04-17T17:35:38.648Z,7.10
2018-04-17T17:38:05.469Z,7.20
2018-04-17T17:40:32.440Z,7.50
2018-04-17T17:42:58.536Z,8.17
2018-04-17T17:45:24.642Z,7.73
2018-04-17T17:47:51.462Z,8.87
2018-04-17T17:50:17.543Z,8.33
2018-04-17T17:52:43.684Z,7.30
2018-04-17T17:55:09.786Z,8.27
2018-04-17T17:57:36.020Z,9.30
2018-04-17T18:00:02.076Z,10.20
2018-04-17T18:02:28.927Z,8.97
2018-04-17T18:04:55.794Z,8.60
2018-04-17T18:07:21.860Z,11.67
2018-04-17T18:09:47.967Z,11.80
2018-04-17T18:12:14.848Z,12.10
2018-04-17T18:14:40.964Z,11.60
2018-04-17T18:17:07.040Z,10.00
2018-04-17T18:19:33.144Z,9.03
2018-04-17T18:21:59.289Z,9.27
2018-04-17T18:24:25.619Z,9.73
2018-04-17T18:26:51.694Z,9.70
2018-04-17T18:29:17.745Z,9.43
2018-04-17T18:31:44.035Z,8.97
2018-04-17T18:34:10.320Z,10.57
2018-04-17T18:36:36.612Z,9.93
2018-04-17T18:39:03.636Z,9.20
2018-04-17T18:41:29.932Z,11.50
2018-04-17T18:43:56.259Z,10.00
2018-04-17T18:46:22.524Z,9.90
2018-04-17T18:48:49.496Z,10.13
2018-04-17T18:51:15.750Z,11.37
2018-04-17T18:53:42.020Z,12.00
2018-04-17T18:56:08.267Z,10.57
2018-04-17T18:58:34.504Z,11.13
2018-04-17T19:01:01.401Z,9.70
2018-04-17T19:03:27.700Z,10.57
2018-04-17T19:05:54.744Z,9.40
2018-04-17T19:08:21.824Z,10.37
2018-04-17T19:10:48.844Z,9.90
2018-04-17T19:13:14.898Z,10.30
2018-04-17T19:15:41.127Z,9.63
2018-04-17T19:18:07.395Z,11.10
2018-04-17T19:20:35.282Z,10.00
2018-04-17T19:23:02.168Z,10.97
2018-04-17T19:25:28.287Z,12.47
2018-04-17T19:27:55.102Z,10.67
2018-04-17T19:30:21.173Z,12.10
2018-04-17T19:32:47.463Z,11.80
2018-04-17T19:35:13.763Z,11.40
2018-04-17T19:37:40.813Z,13.83
2018-04-17T19:40:07.615Z,12.23
2018-04-17T19:42:33.661Z,12.30
2018-04-17T19:44:59.764Z,11.30
2018-04-17T19:47:25.840Z,11.70
2018-04-17T19:49:52.115Z,11.60
2018-04-17T19:52:19.117Z,10.70
2018-04-17T19:54:46.185Z,11.80
2018-04-17T19:57:13.092Z,9.80
2018-04-17T19:59:39.916Z,10.60
2018-04-17T20:02:06.035Z,10.50
2018-04-17T20:04:32.097Z,11.63
2018-04-17T20:06:58.198Z,11.97
2018-04-17T20:09:24.253Z,11.07
2018-04-17T20:11:50.343Z,10.43
2018-04-17T20:14:17.162Z,10.13
2018-04-17T20:16:43.221Z,10.93
2018-04-17T20:19:09.323Z,10.97
2018-04-17T20:21:35.395Z,10.67
2018-04-17T20:24:01.702Z,10.77
2018-04-17T20:26:27.966Z,9.30
2018-04-17T20:28:54.236Z,10.90
2018-04-17T20:31:21.254Z,11.27
2018-04-17T20:33:47.545Z,10.40
2018-04-17T20:36:14.572Z,11.93
2018-04-17T20:38:40.911Z,12.43
2018-04-17T20:41:07.216Z,10.83
2018-04-17T20:43:33.506Z,12.07
2018-04-17T20:45:59.775Z,11.57
2018-04-17T20:48:26.756Z,11.50
2018-04-17T20:50:53.032Z,11.60
2018-04-17T20:53:19.265Z,11.97
2018-04-17T20:55:46.260Z,10.80
2018-04-17T20:58:12.476Z,10.87
2018-04-17T21:00:39.007Z,10.57
2018-04-17T21:03:05.260Z,10.93
2018-04-17T21:05:31.525Z,11.40
2018-04-17T21:07:58.544Z,11.47
2018-04-17T21:10:24.792Z,11.10
2018-04-17T21:12:51.919Z,11.83
2018-04-17T21:15:18.251Z,11.67
2018-04-17T21:17:45.315Z,12.60
2018-04-17T21:20:11.531Z,11.00
2018-04-17T21:22:37.800Z,11.60
2018-04-17T21:25:04.046Z,12.13
2018-04-17T21:27:30.264Z,12.97
2018-04-17T21:29:57.246Z,11.53
2018-04-17T21:32:23.499Z,11.50
2018-04-17T21:34:49.748Z,11.60
2018-04-17T21:37:15.980Z,12.23
2018-04-17T21:39:42.272Z,13.63
2018-04-17T21:42:09.300Z,11.47
2018-04-17T21:44:35.540Z,13.40
2018-04-17T21:47:02.623Z,11.53
2018-04-17T21:49:29.612Z,12.53
2018-04-17T21:51:55.668Z,11.63
2018-04-17T21:54:21.941Z,13.80
2018-04-17T21:56:48.189Z,12.40
2018-04-17T21:59:14.436Z,11.50
2018-04-17T22:01:40.767Z,12.10
2018-04-17T22:04:07.001Z,13.57
2018-04-17T22:06:33.220Z,12.87
2018-04-17T22:08:59.496Z,12.60
2018-04-17T22:11:25.763Z,13.50
2018-04-17T22:13:52.092Z,12.60
2018-04-17T22:16:18.323Z,13.23
2018-04-17T22:18:45.480Z,12.77
2018-04-17T22:21:11.734Z,12.80
2018-04-17T22:23:37.984Z,13.80
2018-04-17T22:26:04.959Z,12.80
2018-04-17T22:28:31.940Z,13.67
2018-04-17T22:30:58.244Z,13.67
2018-04-17T22:33:24.482Z,14.80
2018-04-17T22:35:51.823Z,14.20
2018-04-17T22:38:18.191Z,14.53
2018-04-17T22:40:44.428Z,12.83
2018-04-17T22:43:10.963Z,13.33
2018-04-17T22:45:37.247Z,14.37
2018-04-17T22:48:03.504Z,14.50
2018-04-17T22:50:29.821Z,12.50
2018-04-17T22:52:56.797Z,13.23
2018-04-17T22:55:23.083Z,13.30
2018-04-17T22:57:49.369Z,13.80
2018-04-17T23:00:15.648Z,14.93
2018-04-17T23:02:41.883Z,14.50
2018-04-17T23:05:08.173Z,13.30
2018-04-17T23:07:34.417Z,13.90
2018-04-17T23:10:00.685Z,13.60
2018-04-17T23:12:26.968Z,14.47
2018-04-17T23:14:53.207Z,14.03
2018-04-17T23:17:19.460Z,14.00
2018-04-17T23:19:45.728Z,13.90
2018-04-17T23:22:13.003Z,16.60
2018-04-17T23:24:39.994Z,16.23
2018-04-17T23:27:06.267Z,16.10
2018-04-17T23:29:33.288Z,15.90
2018-04-17T23:31:59.363Z,14.53
2018-04-17T23:34:25.419Z,16.10
2018-04-17T23:36:51.492Z,15.90
2018-04-17T23:39:18.535Z,15.50
2018-04-17T23:41:44.785Z,16.00
2018-04-17T23:44:11.887Z,15.73
2018-04-17T23:46:37.973Z,15.57
2018-04-17T23:49:04.015Z,16.17
2018-04-17T23:51:30.281Z,16.10
2018-04-17T23:53:56.592Z,16.17
2018-04-17T23:56:22.845Z,15.70
2018-04-17T23:58:49.104Z,15.40
